createdAt,value
2018-06-12T00:00:56.688Z,15.90
2018-06-12T00:01:56.671Z,16.40
2018-06-12T00:02:56.662Z,16.30
2018-06-12T00:03:56.666Z,16.10
2018-06-12T00:04:56.635Z,15.90
2018-06-12T00:05:56.617Z,16.30
2018-06-12T00:06:56.614Z,16.80
2018-06-12T00:07:56.594Z,16.00
2018-06-12T00:08:56.589Z,16.30
2018-06-12T00:09:56.582Z,17.70
2018-06-12T00:10:56.564Z,17.20
2018-06-12T00:11:56.652Z,16.80
2018-06-12T00:12:56.530Z,16.80
2018-06-12T00:13:56.517Z,18.70
2018-06-12T00:14:56.504Z,17.50
2018-06-12T00:15:56.501Z,17.10
2018-06-12T00:16:56.482Z,18.30
2018-06-12T00:17:56.566Z,16.50
2018-06-12T00:18:56.451Z,17.30
2018-06-12T00:19:56.492Z,16.40
2018-06-12T00:20:56.460Z,17.10
2018-06-12T00:21:56.514Z,17.20
2018-06-12T00:22:56.397Z,17.10
2018-06-12T00:23:56.491Z,17.30
2018-06-12T00:24:56.381Z,17.40
2018-06-12T00:25:56.410Z,16.70
2018-06-12T00:26:56.351Z,15.80
2018-06-12T00:27:56.336Z,18.20
2018-06-12T00:28:56.317Z,17.40
2018-06-12T00:29:56.308Z,18.70
2018-06-12T00:30:56.301Z,17.70
2018-06-12T00:31:56.285Z,17.50
2018-06-12T00:32:56.273Z,16.50
2018-06-12T00:33:56.311Z,16.50
2018-06-12T00:34:56.247Z,16.90
2018-06-12T00:35:56.231Z,16.90
2018-06-12T00:36:56.222Z,16.80
2018-06-12T00:37:56.209Z,16.10
2018-06-12T00:38:56.199Z,18.20
2018-06-12T00:39:56.177Z,17.90
2018-06-12T00:40:56.164Z,17.00
2018-06-12T00:41:56.155Z,18.70
2018-06-12T00:42:56.142Z,18.20
2018-06-12T00:43:56.132Z,19.80
2018-06-12T00:44:56.112Z,17.00
2018-06-12T00:45:56.097Z,16.50
2018-06-12T00:46:56.087Z,17.80
2018-06-12T00:47:56.074Z,17.90
2018-06-12T00:48:56.063Z,17.40
2018-06-12T00:49:56.053Z,17.30
2018-06-12T00:50:56.037Z,17.80
2018-06-12T00:51:56.027Z,17.70
2018-06-12T00:52:56.013Z,18.30
2018-06-12T00:53:55.994Z,18.20
2018-06-12T00:54:55.982Z,17.20
2018-06-12T00:55:55.972Z,17.30
2018-06-12T00:56:55.959Z,18.00
2018-06-12T00:57:55.947Z,17.30
2018-06-12T00:58:55.940Z,16.90
2018-06-12T00:59:55.921Z,18.10
2018-06-12T01:00:55.905Z,18.90
2018-06-12T01:01:55.890Z,16.70
2018-06-12T01:02:55.875Z,17.20
2018-06-12T01:03:55.866Z,17.10
2018-06-12T01:04:55.856Z,18.10
2018-06-12T01:05:55.842Z,15.90
2018-06-12T01:06:55.825Z,16.40
2018-06-12T01:07:55.831Z,17.00
2018-06-12T01:08:55.800Z,16.30
2018-06-12T01:09:55.787Z,17.20
2018-06-12T01:10:55.771Z,16.10
2018-06-12T01:11:55.768Z,16.30
2018-06-12T01:12:55.754Z,17.00
2018-06-12T01:13:55.735Z,15.70
2018-06-12T01:14:55.723Z,15.60
2018-06-12T01:15:55.713Z,15.30
2018-06-12T01:16:55.694Z,14.40
2018-06-12T01:17:55.682Z,17.10
2018-06-12T01:18:55.672Z,14.90
2018-06-12T01:19:55.653Z,16.00
2018-06-12T01:20:55.650Z,15.90
2018-06-12T01:21:55.641Z,16.20
2018-06-12T01:22:55.622Z,15.10
2018-06-12T01:23:55.612Z,15.60
2018-06-12T01:24:55.599Z,15.50
2018-06-12T01:25:55.580Z,18.00
2018-06-12T01:26:55.571Z,15.80
2018-06-12T01:27:55.554Z,18.80
2018-06-12T01:28:55.542Z,16.10
2018-06-12T01:29:55.527Z,16.00
2018-06-12T01:30:55.510Z,15.70
2018-06-12T01:31:55.497Z,15.90
2018-06-12T01:32:55.488Z,16.50
2018-06-12T01:33:55.478Z,16.10
2018-06-12T01:34:55.455Z,17.00
2018-06-12T01:35:55.451Z,15.70
2018-06-12T01:36:55.438Z,17.20
2018-06-12T01:37:55.422Z,15.70
2018-06-12T01:38:55.404Z,16.60
2018-06-12T01:39:55.400Z,15.80
2018-06-12T01:40:55.382Z,15.00
2018-06-12T01:41:55.368Z,15.80
2018-06-12T01:42:55.362Z,16.40
2018-06-12T01:43:55.349Z,15.70
2018-06-12T01:44:55.329Z,14.60
2018-06-12T01:45:55.316Z,14.90
2018-06-12T01:46:55.304Z,15.20
2018-06-12T01:47:55.285Z,14.80
2018-06-12T01:48:55.272Z,14.80
2018-06-12T01:49:55.257Z,15.90
2018-06-12T01:50:55.251Z,16.00
2018-06-12T01:51:55.235Z,16.90
2018-06-12T01:52:55.269Z,15.40
2018-06-12T01:53:55.209Z,15.30
2018-06-12T01:54:55.194Z,15.10
2018-06-12T01:55:55.181Z,15.30
2018-06-12T01:56:55.168Z,15.40
2018-06-12T01:57:55.152Z,16.00
2018-06-12T01:58:55.142Z,15.40
2018-06-12T01:59:55.127Z,15.70
2018-06-12T02:00:55.107Z,15.70
2018-06-12T02:01:55.097Z,15.60
2018-06-12T02:02:55.088Z,15.50
2018-06-12T02:03:55.077Z,16.20
2018-06-12T02:04:55.062Z,17.70
2018-06-12T02:05:55.044Z,16.70
2018-06-12T02:06:55.037Z,16.20
2018-06-12T02:07:55.017Z,16.60
2018-06-12T02:08:55.004Z,15.70
2018-06-12T02:09:54.988Z,15.80
2018-06-12T02:10:54.972Z,15.90
2018-06-12T02:11:54.965Z,15.90
2018-06-12T02:12:54.949Z,15.20
2018-06-12T02:13:54.934Z,16.80
2018-06-12T02:14:54.927Z,15.20
2018-06-12T02:15:54.908Z,15.10
2018-06-12T02:16:54.905Z,15.90
2018-06-12T02:17:54.885Z,15.90
2018-06-12T02:18:54.870Z,16.00
2018-06-12T02:19:54.853Z,15.30
2018-06-12T02:20:54.853Z,15.50
2018-06-12T02:21:54.827Z,15.70
2018-06-12T02:22:54.809Z,16.70
2018-06-12T02:23:54.798Z,17.50
2018-06-12T02:24:54.794Z,15.70
2018-06-12T02:25:54.773Z,16.20
2018-06-12T02:26:54.763Z,16.30
2018-06-12T02:27:54.752Z,15.80
2018-06-12T02:28:54.733Z,15.70
2018-06-12T02:29:54.719Z,16.50
2018-06-12T02:30:54.699Z,16.60
2018-06-12T02:31:54.693Z,17.50
2018-06-12T02:32:54.679Z,15.10
2018-06-12T02:33:54.659Z,16.00
2018-06-12T02:34:54.645Z,18.10
2018-06-12T02:35:54.638Z,15.10
2018-06-12T02:36:54.628Z,17.10
2018-06-12T02:37:54.609Z,16.10
2018-06-12T02:38:54.589Z,16.30
2018-06-12T02:39:54.576Z,16.00
2018-06-12T02:40:54.570Z,16.40
2018-06-12T02:41:54.562Z,16.90
2018-06-12T02:42:54.543Z,15.40
2018-06-12T02:43:54.612Z,15.80
2018-06-12T02:44:54.514Z,15.40
2018-06-12T02:45:54.538Z,16.30
2018-06-12T02:46:54.487Z,16.70
2018-06-12T02:47:54.535Z,17.30
2018-06-12T02:48:54.462Z,15.50
2018-06-12T02:49:54.459Z,15.30
2018-06-12T02:50:54.433Z,16.90
2018-06-12T02:51:54.416Z,18.20
2018-06-12T02:52:54.399Z,15.20
2018-06-12T02:53:54.388Z,16.80
2018-06-12T02:54:54.379Z,16.60
2018-06-12T02:55:54.360Z,16.80
2018-06-12T02:56:54.352Z,16.20
2018-06-12T02:57:54.327Z,16.10
2018-06-12T02:58:54.318Z,16.00
2018-06-12T02:59:54.310Z,16.50
2018-06-12T03:00:54.298Z,16.10
2018-06-12T03:01:54.280Z,15.00
2018-06-12T03:02:54.264Z,16.00
2018-06-12T03:03:54.249Z,15.60
2018-06-12T03:04:54.244Z,18.00
2018-06-12T03:05:54.220Z,15.90
2018-06-12T03:06:54.210Z,14.80
2018-06-12T03:07:54.202Z,15.90
2018-06-12T03:08:54.186Z,15.30
2018-06-12T03:09:54.169Z,15.90
2018-06-12T03:10:54.154Z,15.20
2018-06-12T03:11:54.176Z,15.90
2018-06-12T03:12:54.127Z,17.10
2018-06-12T03:13:54.113Z,15.10
2018-06-12T03:14:54.102Z,15.50
2018-06-12T03:15:54.086Z,16.00
2018-06-12T03:16:54.079Z,15.20
2018-06-12T03:17:54.057Z,18.80
2018-06-12T03:18:54.054Z,15.10
2018-06-12T03:19:54.027Z,15.80
2018-06-12T03:20:54.020Z,16.30
2018-06-12T03:21:54.004Z,16.90
2018-06-12T03:22:53.991Z,14.30
2018-06-12T03:23:53.981Z,14.60
2018-06-12T03:24:53.961Z,14.80
2018-06-12T03:25:53.950Z,15.00
2018-06-12T03:26:53.937Z,15.50
2018-06-12T03:27:53.921Z,14.70
2018-06-12T03:28:53.911Z,14.80
2018-06-12T03:29:53.901Z,14.10
2018-06-12T03:30:53.882Z,15.70
2018-06-12T03:31:53.868Z,15.80
2018-06-12T03:32:53.855Z,13.70
2018-06-12T03:33:53.951Z,16.30
2018-06-12T03:34:53.828Z,13.50
2018-06-12T03:35:53.812Z,14.90
2018-06-12T03:36:53.803Z,14.80
2018-06-12T03:37:53.848Z,15.10
2018-06-12T03:38:53.771Z,14.00
2018-06-12T03:39:53.757Z,14.60
2018-06-12T03:40:53.746Z,14.70
2018-06-12T03:41:53.730Z,13.70
2018-06-12T03:42:53.717Z,15.40
2018-06-12T03:43:53.701Z,13.30
2018-06-12T03:44:53.692Z,14.30
2018-06-12T03:45:53.685Z,16.10
2018-06-12T03:46:53.663Z,13.90
2018-06-12T03:47:53.648Z,17.10
2018-06-12T03:48:53.644Z,14.80
2018-06-12T03:49:53.614Z,15.00
2018-06-12T03:50:53.612Z,14.70
2018-06-12T03:51:53.590Z,14.20
2018-06-12T03:52:53.577Z,17.00
2018-06-12T03:53:53.574Z,17.80
2018-06-12T03:54:53.547Z,14.90
2018-06-12T03:55:53.542Z,14.40
2018-06-12T03:56:53.524Z,14.30
2018-06-12T03:57:53.510Z,15.30
2018-06-12T03:58:53.493Z,14.80
2018-06-12T03:59:53.478Z,15.00
2018-06-12T04:00:53.471Z,15.90
2018-06-12T04:01:53.458Z,16.50
2018-06-12T04:02:53.440Z,16.30
2018-06-12T04:03:53.430Z,15.00
2018-06-12T04:04:53.417Z,17.20
2018-06-12T04:05:53.401Z,16.40
2018-06-12T04:06:53.389Z,15.80
2018-06-12T04:07:53.365Z,14.90
2018-06-12T04:08:53.357Z,15.20
2018-06-12T04:09:53.350Z,15.00
2018-06-12T04:10:53.328Z,14.90
2018-06-12T04:11:53.336Z,15.90
2018-06-12T04:12:53.302Z,14.40
2018-06-12T04:13:53.290Z,16.00
2018-06-12T04:14:53.488Z,15.20
2018-06-12T04:15:53.267Z,15.30
2018-06-12T04:16:53.372Z,14.80
2018-06-12T04:17:53.229Z,14.60
2018-06-12T04:18:53.255Z,14.60
2018-06-12T04:19:53.210Z,14.70
2018-06-12T04:20:53.194Z,14.10
2018-06-12T04:21:53.171Z,15.00
2018-06-12T04:22:53.164Z,15.70
2018-06-12T04:23:53.155Z,14.60
2018-06-12T04:24:53.137Z,14.40
2018-06-12T04:25:53.124Z,14.80
2018-06-12T04:26:53.114Z,14.60
2018-06-12T04:27:53.094Z,14.60
2018-06-12T04:28:53.158Z,15.80
2018-06-12T04:29:53.069Z,14.20
2018-06-12T04:30:53.108Z,15.70
2018-06-12T04:31:53.052Z,15.70
2018-06-12T04:32:53.023Z,17.90
2018-06-12T04:33:53.014Z,66.90
2018-06-12T04:34:53.002Z,18.10
2018-06-12T04:35:52.991Z,18.30
2018-06-12T04:36:52.972Z,15.30
2018-06-12T04:37:52.962Z,17.60
2018-06-12T04:38:52.951Z,15.40
2018-06-12T04:39:52.930Z,15.30
2018-06-12T04:40:52.921Z,13.60
2018-06-12T04:41:52.901Z,13.00
2018-06-12T04:42:52.889Z,15.90
2018-06-12T04:43:52.879Z,14.70
2018-06-12T04:44:52.857Z,13.60
2018-06-12T04:45:52.852Z,13.20
2018-06-12T04:46:52.836Z,14.30
2018-06-12T04:47:52.823Z,16.00
2018-06-12T04:48:52.804Z,14.70
2018-06-12T04:49:52.803Z,15.30
2018-06-12T04:50:52.782Z,13.40
2018-06-12T04:51:52.772Z,13.70
2018-06-12T04:52:52.752Z,13.50
2018-06-12T04:53:52.737Z,14.70
2018-06-12T04:54:52.725Z,13.70
2018-06-12T04:55:52.712Z,14.00
2018-06-12T04:56:52.695Z,13.00
2018-06-12T04:57:52.682Z,13.00
2018-06-12T04:58:52.675Z,14.00
2018-06-12T04:59:52.659Z,13.20
2018-06-12T05:00:52.640Z,12.50
2018-06-12T05:01:52.627Z,12.60
2018-06-12T05:02:52.615Z,13.20
2018-06-12T05:03:52.604Z,14.70
2018-06-12T05:04:52.591Z,13.00
2018-06-12T05:05:52.589Z,13.70
2018-06-12T05:06:52.562Z,13.80
2018-06-12T05:07:52.547Z,13.50
2018-06-12T05:08:52.538Z,14.00
2018-06-12T05:09:52.541Z,11.60
2018-06-12T05:10:52.506Z,13.10
2018-06-12T05:11:52.496Z,14.50
2018-06-12T05:12:52.476Z,12.20
2018-06-12T05:13:52.467Z,12.20
2018-06-12T05:14:52.458Z,12.60
2018-06-12T05:15:52.437Z,12.70
2018-06-12T05:16:52.436Z,12.90
2018-06-12T05:17:52.419Z,13.50
2018-06-12T05:18:52.406Z,12.00
2018-06-12T05:19:52.418Z,13.10
2018-06-12T05:20:52.383Z,10.60
2018-06-12T05:21:52.365Z,12.70
2018-06-12T05:22:52.348Z,12.90
2018-06-12T05:23:52.335Z,11.90
2018-06-12T05:24:52.321Z,11.80
2018-06-12T05:25:52.308Z,12.90
2018-06-12T05:26:52.296Z,12.30
2018-06-12T05:27:52.282Z,11.90
2018-06-12T05:28:52.268Z,12.40
2018-06-12T05:29:52.255Z,12.10
2018-06-12T05:30:52.242Z,12.40
2018-06-12T05:31:52.238Z,11.00
2018-06-12T05:32:52.216Z,10.50
2018-06-12T05:33:52.206Z,11.90
2018-06-12T05:34:52.187Z,9.80
2018-06-12T05:35:52.178Z,12.00
2018-06-12T05:36:52.164Z,12.70
2018-06-12T05:37:52.162Z,11.50
2018-06-12T05:38:52.135Z,11.20
2018-06-12T05:39:52.116Z,12.90
2018-06-12T05:40:52.111Z,12.60
2018-06-12T05:41:52.110Z,11.40
2018-06-12T05:42:52.084Z,11.60
2018-06-12T05:43:52.079Z,12.30
2018-06-12T05:44:52.062Z,10.90
2018-06-12T05:45:52.146Z,12.00
2018-06-12T05:46:52.136Z,14.20
2018-06-12T05:47:52.026Z,10.40
2018-06-12T05:48:52.011Z,10.40
2018-06-12T05:49:52.082Z,9.80
2018-06-12T05:50:51.982Z,9.20
2018-06-12T05:51:51.982Z,11.80
2018-06-12T05:52:51.959Z,12.00
2018-06-12T05:53:52.038Z,9.80
2018-06-12T05:54:51.928Z,11.40
2018-06-12T05:55:51.967Z,9.50
2018-06-12T05:56:51.899Z,11.30
2018-06-12T05:57:51.895Z,12.40
2018-06-12T05:58:51.880Z,10.50
2018-06-12T05:59:51.965Z,9.30
2018-06-12T06:00:51.864Z,9.60
2018-06-12T06:01:51.909Z,9.10
2018-06-12T06:02:51.828Z,9.40
2018-06-12T06:03:51.897Z,9.40
2018-06-12T06:04:51.802Z,9.70
2018-06-12T06:05:51.887Z,10.20
2018-06-12T06:06:51.790Z,8.60
2018-06-12T06:07:51.812Z,11.10
2018-06-12T06:08:51.751Z,10.20
2018-06-12T06:09:51.780Z,11.60
2018-06-12T06:10:51.723Z,9.70
2018-06-12T06:11:51.704Z,10.80
2018-06-12T06:12:51.700Z,8.80
2018-06-12T06:13:51.681Z,9.20
2018-06-12T06:14:51.668Z,10.90
2018-06-12T06:15:51.660Z,11.30
2018-06-12T06:16:51.645Z,11.00
2018-06-12T06:17:51.637Z,10.00
2018-06-12T06:18:51.618Z,9.60
2018-06-12T06:19:51.611Z,10.80
2018-06-12T06:20:51.592Z,11.90
2018-06-12T06:21:51.578Z,12.90
2018-06-12T06:22:51.571Z,9.20
2018-06-12T06:23:51.553Z,12.30
2018-06-12T06:24:51.539Z,9.70
2018-06-12T06:25:51.529Z,9.70
2018-06-12T06:26:51.523Z,11.00
2018-06-12T06:27:51.498Z,9.50
2018-06-12T06:28:51.484Z,10.50
2018-06-12T06:29:51.481Z,10.90
2018-06-12T06:30:51.472Z,8.50
2018-06-12T06:31:51.459Z,10.90
2018-06-12T06:32:51.437Z,10.60
2018-06-12T06:33:51.437Z,10.40
2018-06-12T06:34:51.420Z,9.00
2018-06-12T06:35:51.408Z,13.10
2018-06-12T06:36:51.392Z,10.10
2018-06-12T06:37:51.388Z,8.80
2018-06-12T06:38:51.382Z,12.10
2018-06-12T06:39:51.357Z,11.00
2018-06-12T06:40:51.347Z,12.40
2018-06-12T06:41:51.331Z,14.20
2018-06-12T06:42:51.321Z,8.10
2018-06-12T06:43:51.309Z,10.00
2018-06-12T06:44:51.299Z,10.70
2018-06-12T06:45:51.295Z,9.20
2018-06-12T06:46:51.273Z,11.50
2018-06-12T06:47:51.264Z,9.30
2018-06-12T06:48:51.252Z,10.10
2018-06-12T06:49:51.229Z,10.10
2018-06-12T06:50:51.221Z,9.50
2018-06-12T06:51:51.204Z,10.80
2018-06-12T06:52:51.197Z,10.50
2018-06-12T06:53:51.188Z,11.70
2018-06-12T06:54:51.171Z,12.00
2018-06-12T06:55:51.159Z,8.20
2018-06-12T06:56:51.156Z,8.60
2018-06-12T06:57:51.139Z,7.90
2018-06-12T06:58:51.139Z,10.10
2018-06-12T06:59:51.112Z,11.20
2018-06-12T07:00:51.101Z,8.60
2018-06-12T07:01:51.078Z,9.10
2018-06-12T07:02:51.069Z,8.20
2018-06-12T07:03:51.059Z,9.10
2018-06-12T07:04:51.050Z,12.40
2018-06-12T07:05:51.034Z,10.90
2018-06-12T07:06:51.015Z,8.40
2018-06-12T07:07:51.014Z,8.30
2018-06-12T07:08:50.996Z,11.20
2018-06-12T07:09:50.990Z,10.20
2018-06-12T07:10:50.973Z,8.90
2018-06-12T07:11:50.960Z,9.20
2018-06-12T07:12:50.948Z,9.30
2018-06-12T07:13:50.941Z,7.60
2018-06-12T07:14:50.950Z,9.70
2018-06-12T07:15:50.912Z,9.40
2018-06-12T07:16:50.896Z,8.20
2018-06-12T07:17:50.880Z,9.40
2018-06-12T07:18:50.979Z,8.20
2018-06-12T07:19:50.858Z,7.50
2018-06-12T07:20:50.852Z,6.80
2018-06-12T07:21:50.836Z,8.50
2018-06-12T07:22:50.833Z,6.90
2018-06-12T07:23:50.826Z,8.50
2018-06-12T07:24:50.807Z,6.60
2018-06-12T07:25:50.800Z,8.40
2018-06-12T07:26:50.784Z,7.40
2018-06-12T07:27:50.773Z,7.40
2018-06-12T07:28:50.767Z,6.20
2018-06-12T07:29:50.748Z,6.50
2018-06-12T07:30:50.740Z,7.30
2018-06-12T07:31:50.724Z,8.70
2018-06-12T07:32:50.715Z,7.50
2018-06-12T07:33:50.709Z,8.00
2018-06-12T07:34:50.698Z,8.00
2018-06-12T07:35:50.677Z,6.10
2018-06-12T07:36:50.670Z,7.30
2018-06-12T07:37:50.702Z,5.70
2018-06-12T07:38:50.700Z,7.60
2018-06-12T07:39:50.637Z,7.30
2018-06-12T07:40:50.627Z,7.90
2018-06-12T07:41:50.611Z,8.30
2018-06-12T07:42:50.600Z,6.80
2018-06-12T07:43:50.589Z,8.30
2018-06-12T07:44:50.570Z,9.50
2018-06-12T07:45:50.563Z,8.30
2018-06-12T07:46:50.557Z,6.90
2018-06-12T07:47:50.558Z,5.50
2018-06-12T07:48:50.531Z,6.60
2018-06-12T07:50:50.510Z,7.50
2018-06-12T07:51:50.497Z,7.20
2018-06-12T07:52:50.490Z,7.70
2018-06-12T07:53:50.471Z,6.50
2018-06-12T07:54:50.461Z,8.40
2018-06-12T07:55:50.445Z,7.50
2018-06-12T07:56:50.448Z,6.50
2018-06-12T07:57:50.427Z,6.90
2018-06-12T07:58:50.425Z,7.10
2018-06-12T07:59:50.405Z,7.00
2018-06-12T08:00:50.535Z,4.60
2018-06-12T08:01:50.383Z,5.40
2018-06-12T08:02:50.396Z,6.20
2018-06-12T08:03:50.483Z,6.70
2018-06-12T08:04:50.352Z,5.50
2018-06-12T08:05:50.394Z,7.10
2018-06-12T08:06:50.337Z,6.40
2018-06-12T08:07:50.361Z,6.80
2018-06-12T08:08:50.299Z,7.20
2018-06-12T08:09:50.309Z,5.90
2018-06-12T08:10:50.281Z,6.00
2018-06-12T08:11:50.265Z,5.30
2018-06-12T08:12:50.287Z,6.70
2018-06-12T08:13:50.252Z,7.00
2018-06-12T08:14:50.238Z,6.90
2018-06-12T08:15:50.242Z,5.60
2018-06-12T08:16:50.216Z,5.50
2018-06-12T08:17:50.197Z,5.40
2018-06-12T08:18:50.197Z,7.60
2018-06-12T08:19:50.184Z,3.80
2018-06-12T08:20:50.168Z,5.40
2018-06-12T08:21:50.161Z,5.00
2018-06-12T08:22:50.148Z,6.40
2018-06-12T08:23:50.171Z,7.80
2018-06-12T08:24:50.140Z,5.60
2018-06-12T08:25:50.122Z,6.30
2018-06-12T08:26:50.108Z,4.00
2018-06-12T08:27:50.097Z,6.60
2018-06-12T08:28:50.085Z,5.00
2018-06-12T08:29:50.139Z,6.30
2018-06-12T08:30:50.069Z,5.30
2018-06-12T08:31:50.058Z,5.90
2018-06-12T08:32:50.049Z,6.00
2018-06-12T08:33:50.036Z,5.40
2018-06-12T08:34:50.033Z,5.10
2018-06-12T08:35:50.015Z,6.60
2018-06-12T08:36:50.027Z,7.70
2018-06-12T08:37:49.987Z,6.30
2018-06-12T08:38:50.003Z,4.40
2018-06-12T08:39:50.024Z,5.20
2018-06-12T08:40:50.022Z,5.00
2018-06-12T08:41:49.946Z,5.80
2018-06-12T08:42:49.945Z,7.40
2018-06-12T08:43:49.926Z,6.20
2018-06-12T08:44:49.960Z,5.80
2018-06-12T08:45:49.910Z,7.20
2018-06-12T08:46:49.899Z,4.80
2018-06-12T08:47:49.885Z,5.10
2018-06-12T08:48:49.876Z,5.70
2018-06-12T08:49:49.872Z,6.90
2018-06-12T08:50:49.891Z,5.00
2018-06-12T08:51:49.837Z,7.30
2018-06-12T08:52:49.838Z,4.50
2018-06-12T08:53:49.820Z,5.30
2018-06-12T08:54:49.824Z,4.90
2018-06-12T08:55:49.808Z,7.20
2018-06-12T08:56:49.857Z,7.90
2018-06-12T08:57:49.782Z,6.40
2018-06-12T08:58:49.777Z,6.70
2018-06-12T08:59:49.768Z,7.00
2018-06-12T09:00:49.754Z,7.90
2018-06-12T09:01:49.738Z,8.20
2018-06-12T09:02:49.729Z,8.60
2018-06-12T09:03:49.729Z,8.50
2018-06-12T09:04:49.716Z,11.00
2018-06-12T09:05:49.703Z,9.60
2018-06-12T09:06:49.694Z,9.70
2018-06-12T09:07:49.684Z,10.10
2018-06-12T09:08:49.668Z,10.20
2018-06-12T09:09:49.658Z,10.70
2018-06-12T09:10:49.648Z,11.20
2018-06-12T09:11:49.668Z,11.10
2018-06-12T09:12:49.683Z,10.50
2018-06-12T09:13:49.628Z,9.80
2018-06-12T09:14:49.658Z,10.00
2018-06-12T09:15:49.602Z,10.60
2018-06-12T09:16:49.697Z,11.10
2018-06-12T09:17:49.602Z,10.60
2018-06-12T09:18:49.568Z,10.10
2018-06-12T09:19:49.563Z,10.70
2018-06-12T09:20:49.595Z,11.10
2018-06-12T09:21:49.542Z,11.30
2018-06-12T09:22:49.539Z,11.10
2018-06-12T09:23:49.517Z,11.80
2018-06-12T09:24:49.512Z,11.50
2018-06-12T09:25:49.497Z,10.30
2018-06-12T09:26:49.491Z,11.70
2018-06-12T09:27:49.481Z,10.30
2018-06-12T09:28:49.481Z,9.00
2018-06-12T09:29:49.455Z,9.10
2018-06-12T09:30:49.452Z,8.70
2018-06-12T09:31:49.442Z,7.60
2018-06-12T09:32:49.436Z,7.80
2018-06-12T09:33:49.423Z,8.10
2018-06-12T09:34:49.414Z,7.90
2018-06-12T09:35:49.403Z,7.20
2018-06-12T09:36:49.398Z,7.40
2018-06-12T09:37:49.388Z,9.20
2018-06-12T09:38:49.375Z,7.20
2018-06-12T09:39:49.372Z,8.10
2018-06-12T09:40:49.364Z,7.60
2018-06-12T09:41:49.346Z,7.90
2018-06-12T09:42:49.343Z,8.40
2018-06-12T09:43:49.329Z,9.10
2018-06-12T09:44:49.317Z,8.30
2018-06-12T09:45:49.308Z,8.30
2018-06-12T09:46:49.302Z,8.60
2018-06-12T09:47:49.292Z,8.10
2018-06-12T09:48:49.279Z,8.40
2018-06-12T09:49:49.269Z,8.80
2018-06-12T09:50:49.266Z,8.70
2018-06-12T09:51:49.260Z,8.80
2018-06-12T09:52:49.267Z,8.80
2018-06-12T09:53:49.269Z,8.90
2018-06-12T09:54:49.230Z,9.30
2018-06-12T09:55:49.223Z,8.50
2018-06-12T09:56:49.208Z,9.80
2018-06-12T09:57:49.361Z,9.70
2018-06-12T09:58:49.193Z,10.60
2018-06-12T09:59:49.228Z,10.10
2018-06-12T10:00:49.170Z,9.80
2018-06-12T10:01:49.260Z,9.50
2018-06-12T10:02:49.150Z,9.50
2018-06-12T10:03:49.243Z,9.90
2018-06-12T10:04:49.127Z,10.20
2018-06-12T10:05:49.127Z,10.50
2018-06-12T10:06:49.108Z,10.20
2018-06-12T10:07:49.134Z,9.90
2018-06-12T10:08:49.092Z,10.00
2018-06-12T10:09:49.093Z,9.90
2018-06-12T10:10:49.080Z,10.30
2018-06-12T10:11:49.083Z,9.50
2018-06-12T10:12:49.056Z,10.50
2018-06-12T10:13:49.065Z,10.40
2018-06-12T10:14:49.058Z,10.10
2018-06-12T10:15:49.048Z,10.30
2018-06-12T10:16:49.032Z,10.00
2018-06-12T10:17:49.041Z,10.70
2018-06-12T10:18:49.072Z,9.70
2018-06-12T10:19:49.003Z,11.00
2018-06-12T10:20:48.991Z,9.30
2018-06-12T10:21:48.977Z,8.80
2018-06-12T10:22:48.971Z,9.10
2018-06-12T10:23:48.960Z,9.50
2018-06-12T10:24:48.961Z,10.10
2018-06-12T10:25:48.942Z,8.80
2018-06-12T10:26:48.943Z,9.00
2018-06-12T10:27:48.925Z,9.30
2018-06-12T10:28:48.917Z,8.70
2018-06-12T10:29:48.905Z,8.60
2018-06-12T10:30:48.897Z,10.60
2018-06-12T10:31:48.888Z,8.30
2018-06-12T10:32:48.882Z,7.90
2018-06-12T10:33:48.865Z,6.90
2018-06-12T10:34:48.865Z,6.70
2018-06-12T10:35:48.850Z,6.90
2018-06-12T10:36:48.845Z,7.70
2018-06-12T10:37:48.828Z,9.60
2018-06-12T10:38:48.826Z,7.80
2018-06-12T10:39:48.834Z,6.50
2018-06-12T10:40:48.806Z,7.80
2018-06-12T10:41:48.792Z,6.40
2018-06-12T10:42:48.831Z,6.20
2018-06-12T10:43:48.788Z,8.60
2018-06-12T10:44:48.766Z,6.40
2018-06-12T10:45:48.755Z,6.70
2018-06-12T10:46:48.748Z,6.70
2018-06-12T10:47:48.739Z,6.00
2018-06-12T10:48:48.726Z,6.60
2018-06-12T10:49:48.721Z,6.70
2018-06-12T10:50:48.713Z,7.60
2018-06-12T10:51:48.703Z,6.50
2018-06-12T10:52:48.690Z,6.60
2018-06-12T10:53:48.687Z,6.50
2018-06-12T10:54:48.674Z,6.80
2018-06-12T10:55:48.662Z,6.30
2018-06-12T10:56:48.655Z,7.10
2018-06-12T10:57:48.639Z,7.90
2018-06-12T10:58:48.630Z,7.30
2018-06-12T10:59:48.669Z,6.50
2018-06-12T11:00:48.623Z,6.80
2018-06-12T11:01:48.610Z,6.20
2018-06-12T11:02:48.599Z,6.90
2018-06-12T11:03:48.588Z,8.20
2018-06-12T11:04:48.579Z,8.40
2018-06-12T11:05:48.573Z,7.70
2018-06-12T11:06:48.553Z,7.20
2018-06-12T11:07:48.542Z,6.70
2018-06-12T11:08:48.537Z,9.80
2018-06-12T11:09:48.530Z,6.90
2018-06-12T11:10:48.532Z,7.20
2018-06-12T11:11:48.508Z,6.40
2018-06-12T11:12:48.502Z,8.00
2018-06-12T11:13:48.486Z,6.60
2018-06-12T11:14:48.476Z,6.90
2018-06-12T11:15:48.471Z,6.80
2018-06-12T11:16:48.456Z,6.70
2018-06-12T11:17:48.453Z,8.40
2018-06-12T11:18:48.442Z,8.10
2018-06-12T11:19:48.430Z,7.50
2018-06-12T11:20:48.537Z,8.60
2018-06-12T11:21:48.407Z,6.60
2018-06-12T11:22:48.397Z,8.20
2018-06-12T11:23:48.388Z,7.80
2018-06-12T11:24:48.374Z,9.30
2018-06-12T11:25:48.369Z,6.70
2018-06-12T11:26:48.355Z,8.30
2018-06-12T11:27:48.354Z,7.40
2018-06-12T11:28:48.342Z,7.80
2018-06-12T11:29:48.330Z,7.60
2018-06-12T11:30:48.317Z,7.30
2018-06-12T11:31:48.311Z,6.90
2018-06-12T11:32:48.297Z,7.60
2018-06-12T11:33:48.282Z,7.90
2018-06-12T11:34:48.272Z,7.10
2018-06-12T11:35:48.266Z,7.10
2018-06-12T11:36:48.260Z,7.20
2018-06-12T11:37:48.295Z,9.20
2018-06-12T11:38:48.236Z,8.10
2018-06-12T11:39:48.222Z,9.00
2018-06-12T11:40:48.214Z,10.00
2018-06-12T11:41:48.201Z,8.10
2018-06-12T11:42:48.198Z,7.90
2018-06-12T11:43:48.187Z,9.30
2018-06-12T11:44:48.168Z,9.90
2018-06-12T11:45:48.171Z,8.80
2018-06-12T11:46:48.157Z,7.60
2018-06-12T11:47:48.139Z,7.40
2018-06-12T11:48:48.137Z,7.10
2018-06-12T11:49:48.216Z,9.80
2018-06-12T11:50:48.108Z,7.70
2018-06-12T11:51:48.146Z,8.10
2018-06-12T11:52:48.093Z,6.70
2018-06-12T11:53:48.079Z,8.00
2018-06-12T11:54:48.070Z,8.30
2018-06-12T11:55:48.066Z,8.20
2018-06-12T11:56:48.056Z,7.70
2018-06-12T11:57:48.041Z,9.10
2018-06-12T11:58:48.022Z,8.10
2018-06-12T11:59:48.069Z,10.10
2018-06-12T12:00:48.007Z,7.80
2018-06-12T12:01:48.067Z,8.80
2018-06-12T12:02:47.987Z,8.00
2018-06-12T12:03:47.988Z,7.50
2018-06-12T12:04:47.971Z,9.00
2018-06-12T12:05:47.955Z,8.90
2018-06-12T12:06:47.951Z,9.70
2018-06-12T12:07:47.949Z,8.50
2018-06-12T12:08:47.931Z,8.50
2018-06-12T12:09:47.913Z,8.10
2018-06-12T12:10:47.907Z,7.90
2018-06-12T12:11:47.901Z,8.80
2018-06-12T12:12:47.884Z,8.50
2018-06-12T12:13:47.881Z,8.60
2018-06-12T12:14:47.874Z,9.80
2018-06-12T12:15:47.859Z,8.30
2018-06-12T12:16:47.849Z,9.00
2018-06-12T12:17:47.835Z,7.70
2018-06-12T12:18:47.830Z,8.40
2018-06-12T12:19:47.811Z,8.50
2018-06-12T12:20:47.807Z,8.30
2018-06-12T12:21:47.795Z,11.30
2018-06-12T12:22:47.786Z,9.00
2018-06-12T12:23:47.782Z,9.10
2018-06-12T12:24:47.765Z,9.80
2018-06-12T12:25:47.758Z,10.60
2018-06-12T12:26:47.759Z,8.90
2018-06-12T12:27:47.736Z,9.10
2018-06-12T12:28:47.741Z,8.70
2018-06-12T12:29:47.715Z,10.30
2018-06-12T12:30:47.742Z,9.10
2018-06-12T12:31:47.701Z,8.80
2018-06-12T12:32:47.686Z,9.30
2018-06-12T12:33:47.679Z,9.90
2018-06-12T12:34:47.668Z,10.00
2018-06-12T12:35:47.659Z,9.30
2018-06-12T12:36:47.646Z,11.10
2018-06-12T12:37:47.636Z,9.40
2018-06-12T12:38:47.626Z,8.90
2018-06-12T12:39:47.622Z,9.20
2018-06-12T12:40:47.607Z,9.30
2018-06-12T12:41:47.600Z,9.60
2018-06-12T12:42:47.592Z,8.70
2018-06-12T12:43:47.575Z,10.00
2018-06-12T12:44:47.575Z,10.10
2018-06-12T12:45:47.562Z,10.00
2018-06-12T12:46:47.550Z,9.80
2018-06-12T12:47:47.538Z,9.70
2018-06-12T12:48:47.527Z,9.60
2018-06-12T12:49:47.521Z,9.50
2018-06-12T12:50:47.511Z,9.50
2018-06-12T12:51:47.501Z,10.00
2018-06-12T12:52:47.499Z,10.00
2018-06-12T12:53:47.480Z,10.40
2018-06-12T12:54:47.473Z,9.90
2018-06-12T12:55:47.469Z,11.40
2018-06-12T12:56:47.457Z,12.00
2018-06-12T12:57:47.447Z,11.50
2018-06-12T12:58:47.440Z,10.30
2018-06-12T12:59:47.461Z,10.00
2018-06-12T13:00:47.416Z,9.80
2018-06-12T13:01:47.412Z,10.60
2018-06-12T13:02:47.395Z,9.90
2018-06-12T13:03:47.392Z,10.60
2018-06-12T13:04:47.391Z,9.90